sensor_id;sensor_type;location;lat;lon;timestamp;temperature;humidity
19692;DHT22;42748;50.016;19.890;2023-02-01T00:00:02;3.00;99.90
19692;DHT22;42748;50.016;19.890;2023-02-01T00:02:30;3.00;99.90
19692;DHT22;42748;50.016;19.890;2023-02-01T00:04:58;3.10;99.90
19692;DHT22;42748;50.016;19.890;2023-02-01T00:07:25;3.10;99.90
19692;DHT22;42748;50.016;19.890;2023-02-01T00:09:52;3.00;99.90
19692;DHT22;42748;50.016;19.890;2023-02-01T00:12:19;3.10;99.90
19692;DHT22;42748;50.016;19.890;2023-02-01T00:14:46;3.10;99.90
19692;DHT22;42748;50.016;19.890;2023-02-01T00:17:15;3.10;99.90
19692;DHT22;42748;50.016;19.890;2023-02-01T00:19:42;3.00;99.90
19692;DHT22;42748;50.016;19.890;2023-02-01T00:22:09;3.00;99.90
19692;DHT22;42748;50.016;19.890;2023-02-01T00:24:36;3.00;99.90
19692;DHT22;42748;50.016;19.890;2023-02-01T00:27:03;3.00;99.90
19692;DHT22;42748;50.016;19.890;2023-02-01T00:29:30;3.00;99.90
19692;DHT22;42748;50.016;19.890;2023-02-01T00:31:57;3.00;99.90
19692;DHT22;42748;50.016;19.890;2023-02-01T00:34:25;3.00;99.90
19692;DHT22;42748;50.016;19.890;2023-02-01T00:36:52;3.00;99.90
19692;DHT22;42748;50.016;19.890;2023-02-01T00:39:19;3.00;99.90
19692;DHT22;42748;50.016;19.890;2023-02-01T00:41:47;3.00;99.90
19692;DHT22;42748;50.016;19.890;2023-02-01T00:44:14;3.10;99.90
19692;DHT22;42748;50.016;19.890;2023-02-01T00:46:41;3.10;99.90
19692;DHT22;42748;50.016;19.890;2023-02-01T00:49:09;3.10;99.90
19692;DHT22;42748;50.016;19.890;2023-02-01T00:51:36;3.10;99.90
19692;DHT22;42748;50.016;19.890;2023-02-01T00:54:03;3.10;99.90
19692;DHT22;42748;50.016;19.890;2023-02-01T00:56:30;3.10;99.90
19692;DHT22;42748;50.016;19.890;2023-02-01T00:58:58;3.10;99.90
19692;DHT22;42748;50.016;19.890;2023-02-01T01:01:26;3.10;99.90
19692;DHT22;42748;50.016;19.890;2023-02-01T01:03:56;3.10;99.90
19692;DHT22;42748;50.016;19.890;2023-02-01T01:06:29;3.00;99.90
19692;DHT22;42748;50.016;19.890;2023-02-01T01:08:58;3.10;99.90
19692;DHT22;42748;50.016;19.890;2023-02-01T01:11:28;3.10;99.90
19692;DHT22;42748;50.016;19.890;2023-02-01T01:13:57;3.10;99.90
19692;DHT22;42748;50.016;19.890;2023-02-01T01:16:27;3.20;99.90
19692;DHT22;42748;50.016;19.890;2023-02-01T01:18:55;3.20;99.90
19692;DHT22;42748;50.016;19.890;2023-02-01T01:21:24;3.30;99.90
19692;DHT22;42748;50.016;19.890;2023-02-01T01:23:52;3.30;99.90
19692;DHT22;42748;50.016;19.890;2023-02-01T01:26:26;3.30;99.90
19692;DHT22;42748;50.016;19.890;2023-02-01T01:28:56;3.40;99.90
19692;DHT22;42748;50.016;19.890;2023-02-01T01:31:24;3.50;99.90
19692;DHT22;42748;50.016;19.890;2023-02-01T01:33:53;3.40;99.90
19692;DHT22;42748;50.016;19.890;2023-02-01T01:36:22;3.40;99.90
19692;DHT22;42748;50.016;19.890;2023-02-01T01:38:50;3.50;99.90
19692;DHT22;42748;50.016;19.890;2023-02-01T01:41:21;3.50;99.90
19692;DHT22;42748;50.016;19.890;2023-02-01T01:43:56;3.40;99.90
19692;DHT22;42748;50.016;19.890;2023-02-01T01:46:29;3.40;99.90
19692;DHT22;42748;50.016;19.890;2023-02-01T01:49:15;3.40;99.90
19692;DHT22;42748;50.016;19.890;2023-02-01T01:51:51;3.30;99.90
19692;DHT22;42748;50.016;19.890;2023-02-01T01:54:32;3.30;99.90
19692;DHT22;42748;50.016;19.890;2023-02-01T01:57:04;3.20;99.90
19692;DHT22;42748;50.016;19.890;2023-02-01T01:59:36;3.10;99.90
19692;DHT22;42748;50.016;19.890;2023-02-01T02:02:04;3.10;99.90
19692;DHT22;42748;50.016;19.890;2023-02-01T02:04:33;3.10;99.90
19692;DHT22;42748;50.016;19.890;2023-02-01T02:07:05;3.00;99.90
19692;DHT22;42748;50.016;19.890;2023-02-01T02:09:34;3.00;99.90
19692;DHT22;42748;50.016;19.890;2023-02-01T02:12:02;3.00;99.90
19692;DHT22;42748;50.016;19.890;2023-02-01T02:14:29;3.00;99.90
19692;DHT22;42748;50.016;19.890;2023-02-01T02:23:12;3.00;99.90
19692;DHT22;42748;50.016;19.890;2023-02-01T02:42:33;2.90;99.90
19692;DHT22;42748;50.016;19.890;2023-02-01T02:45:29;2.90;99.90
19692;DHT22;42748;50.016;19.890;2023-02-01T02:48:32;2.90;99.90
19692;DHT22;42748;50.016;19.890;2023-02-01T02:56:53;2.80;99.90
19692;DHT22;42748;50.016;19.890;2023-02-01T02:59:43;2.80;99.90
19692;DHT22;42748;50.016;19.890;2023-02-01T03:02:32;2.70;99.90
19692;DHT22;42748;50.016;19.890;2023-02-01T03:05:19;2.70;99.90
19692;DHT22;42748;50.016;19.890;2023-02-01T03:15:51;2.50;99.90
19692;DHT22;42748;50.016;19.890;2023-02-01T03:18:39;2.50;99.90
19692;DHT22;42748;50.016;19.890;2023-02-01T03:21:14;2.50;99.90
19692;DHT22;42748;50.016;19.890;2023-02-01T03:23:44;2.50;99.90
19692;DHT22;42748;50.016;19.890;2023-02-01T03:26:14;2.50;99.90
19692;DHT22;42748;50.016;19.890;2023-02-01T03:28:50;2.50;99.90
19692;DHT22;42748;50.016;19.890;2023-02-01T03:31:19;2.50;99.90
19692;DHT22;42748;50.016;19.890;2023-02-01T03:33:46;2.50;99.90
19692;DHT22;42748;50.016;19.890;2023-02-01T03:41:53;2.40;99.90
19692;DHT22;42748;50.016;19.890;2023-02-01T03:44:33;2.40;99.90
19692;DHT22;42748;50.016;19.890;2023-02-01T03:49:42;2.40;99.90
19692;DHT22;42748;50.016;19.890;2023-02-01T03:52:18;2.30;99.90
19692;DHT22;42748;50.016;19.890;2023-02-01T03:54:47;2.30;99.90
19692;DHT22;42748;50.016;19.890;2023-02-01T03:57:22;2.30;99.90
19692;DHT22;42748;50.016;19.890;2023-02-01T03:59:51;2.30;99.90
19692;DHT22;42748;50.016;19.890;2023-02-01T04:02:18;2.30;99.90
19692;DHT22;42748;50.016;19.890;2023-02-01T04:04:45;2.30;99.90
19692;DHT22;42748;50.016;19.890;2023-02-01T04:07:16;2.30;99.90
19692;DHT22;42748;50.016;19.890;2023-02-01T04:09:43;2.30;99.90
19692;DHT22;42748;50.016;19.890;2023-02-01T04:12:11;2.30;99.90
19692;DHT22;42748;50.016;19.890;2023-02-01T04:14:38;2.30;99.90
19692;DHT22;42748;50.016;19.890;2023-02-01T04:17:05;2.30;99.90
19692;DHT22;42748;50.016;19.890;2023-02-01T04:19:32;2.30;99.90
19692;DHT22;42748;50.016;19.890;2023-02-01T04:21:59;2.30;99.90
19692;DHT22;42748;50.016;19.890;2023-02-01T04:24:26;2.30;99.90
19692;DHT22;42748;50.016;19.890;2023-02-01T04:26:53;2.30;99.90
19692;DHT22;42748;50.016;19.890;2023-02-01T04:29:20;2.20;99.90
19692;DHT22;42748;50.016;19.890;2023-02-01T04:31:48;2.30;99.90
19692;DHT22;42748;50.016;19.890;2023-02-01T04:34:16;2.30;99.90
19692;DHT22;42748;50.016;19.890;2023-02-01T04:36:43;2.30;99.90
19692;DHT22;42748;50.016;19.890;2023-02-01T04:39:13;2.20;99.90
19692;DHT22;42748;50.016;19.890;2023-02-01T04:41:40;2.20;99.90
19692;DHT22;42748;50.016;19.890;2023-02-01T04:44:14;2.20;99.90
19692;DHT22;42748;50.016;19.890;2023-02-01T04:46:42;2.20;99.90
19692;DHT22;42748;50.016;19.890;2023-02-01T04:49:13;2.20;99.90
19692;DHT22;42748;50.016;19.890;2023-02-01T04:51:40;2.20;99.90
19692;DHT22;42748;50.016;19.890;2023-02-01T04:54:08;2.20;99.90
19692;DHT22;42748;50.016;19.890;2023-02-01T04:56:38;2.20;99.90
19692;DHT22;42748;50.016;19.890;2023-02-01T04:59:05;2.30;99.90
19692;DHT22;42748;50.016;19.890;2023-02-01T05:01:32;2.30;99.90
19692;DHT22;42748;50.016;19.890;2023-02-01T05:04:00;2.30;99.90
19692;DHT22;42748;50.016;19.890;2023-02-01T05:06:27;2.30;99.90
19692;DHT22;42748;50.016;19.890;2023-02-01T05:08:54;2.20;99.90
19692;DHT22;42748;50.016;19.890;2023-02-01T05:11:21;2.30;99.90
19692;DHT22;42748;50.016;19.890;2023-02-01T05:14:07;2.30;99.90
19692;DHT22;42748;50.016;19.890;2023-02-01T05:16:34;2.20;99.90
19692;DHT22;42748;50.016;19.890;2023-02-01T05:19:01;2.20;99.90
19692;DHT22;42748;50.016;19.890;2023-02-01T05:21:30;2.20;99.90
19692;DHT22;42748;50.016;19.890;2023-02-01T05:23:57;2.20;99.90
19692;DHT22;42748;50.016;19.890;2023-02-01T05:26:37;2.20;99.90
19692;DHT22;42748;50.016;19.890;2023-02-01T05:29:05;2.10;99.90
19692;DHT22;42748;50.016;19.890;2023-02-01T05:31:33;2.20;99.90
19692;DHT22;42748;50.016;19.890;2023-02-01T05:34:00;2.20;99.90
19692;DHT22;42748;50.016;19.890;2023-02-01T05:36:28;2.10;99.90
19692;DHT22;42748;50.016;19.890;2023-02-01T05:38:55;2.10;99.90
19692;DHT22;42748;50.016;19.890;2023-02-01T05:41:22;2.10;99.90
19692;DHT22;42748;50.016;19.890;2023-02-01T05:43:49;2.10;99.90
19692;DHT22;42748;50.016;19.890;2023-02-01T05:46:16;2.10;99.90
19692;DHT22;42748;50.016;19.890;2023-02-01T05:48:43;2.20;99.90
19692;DHT22;42748;50.016;19.890;2023-02-01T05:51:11;2.20;99.90
19692;DHT22;42748;50.016;19.890;2023-02-01T05:53:38;2.20;99.90
19692;DHT22;42748;50.016;19.890;2023-02-01T05:56:06;2.30;99.90
19692;DHT22;42748;50.016;19.890;2023-02-01T05:58:33;2.40;99.90
19692;DHT22;42748;50.016;19.890;2023-02-01T06:01:01;2.50;99.90
19692;DHT22;42748;50.016;19.890;2023-02-01T06:03:28;2.60;99.90
19692;DHT22;42748;50.016;19.890;2023-02-01T06:05:55;2.60;99.90
19692;DHT22;42748;50.016;19.890;2023-02-01T06:08:22;2.60;99.90
19692;DHT22;42748;50.016;19.890;2023-02-01T06:11:18;2.70;99.90
19692;DHT22;42748;50.016;19.890;2023-02-01T06:13:58;2.70;99.90
19692;DHT22;42748;50.016;19.890;2023-02-01T06:16:25;2.70;99.90
19692;DHT22;42748;50.016;19.890;2023-02-01T06:18:53;2.80;99.90
19692;DHT22;42748;50.016;19.890;2023-02-01T06:21:20;2.80;99.90
19692;DHT22;42748;50.016;19.890;2023-02-01T06:23:52;2.90;99.90
19692;DHT22;42748;50.016;19.890;2023-02-01T06:26:19;3.00;99.90
19692;DHT22;42748;50.016;19.890;2023-02-01T06:28:46;3.00;99.90
19692;DHT22;42748;50.016;19.890;2023-02-01T06:31:14;3.10;99.90
19692;DHT22;42748;50.016;19.890;2023-02-01T06:33:42;3.20;99.90
19692;DHT22;42748;50.016;19.890;2023-02-01T06:36:10;3.20;99.90
19692;DHT22;42748;50.016;19.890;2023-02-01T06:38:39;3.30;99.90
19692;DHT22;42748;50.016;19.890;2023-02-01T06:41:06;3.30;99.90
19692;DHT22;42748;50.016;19.890;2023-02-01T06:43:34;3.30;99.90
19692;DHT22;42748;50.016;19.890;2023-02-01T06:46:04;3.30;99.90
19692;DHT22;42748;50.016;19.890;2023-02-01T06:48:31;3.40;99.90
19692;DHT22;42748;50.016;19.890;2023-02-01T06:50:59;3.40;99.90
19692;DHT22;42748;50.016;19.890;2023-02-01T06:53:26;3.50;99.90
19692;DHT22;42748;50.016;19.890;2023-02-01T06:55:58;3.50;99.90
19692;DHT22;42748;50.016;19.890;2023-02-01T06:58:30;3.50;99.90
19692;DHT22;42748;50.016;19.890;2023-02-01T07:00:58;3.60;99.90
19692;DHT22;42748;50.016;19.890;2023-02-01T07:03:30;3.60;99.90
19692;DHT22;42748;50.016;19.890;2023-02-01T07:05:58;3.60;99.90
19692;DHT22;42748;50.016;19.890;2023-02-01T07:08:28;3.60;99.90
19692;DHT22;42748;50.016;19.890;2023-02-01T07:10:55;3.70;99.90
19692;DHT22;42748;50.016;19.890;2023-02-01T07:13:23;3.70;99.90
19692;DHT22;42748;50.016;19.890;2023-02-01T07:15:50;3.70;99.90
19692;DHT22;42748;50.016;19.890;2023-02-01T07:18:17;3.70;99.90
19692;DHT22;42748;50.016;19.890;2023-02-01T07:20:50;3.70;99.90
19692;DHT22;42748;50.016;19.890;2023-02-01T07:23:17;3.80;99.90
19692;DHT22;42748;50.016;19.890;2023-02-01T07:25:44;3.80;99.90
19692;DHT22;42748;50.016;19.890;2023-02-01T07:28:11;3.80;99.90
19692;DHT22;42748;50.016;19.890;2023-02-01T07:30:38;3.80;99.90
19692;DHT22;42748;50.016;19.890;2023-02-01T07:33:07;3.90;99.90
19692;DHT22;42748;50.016;19.890;2023-02-01T07:35:34;3.90;99.90
19692;DHT22;42748;50.016;19.890;2023-02-01T07:38:01;3.90;99.90
19692;DHT22;42748;50.016;19.890;2023-02-01T07:40:28;4.00;99.90
19692;DHT22;42748;50.016;19.890;2023-02-01T07:42:57;4.00;99.90
19692;DHT22;42748;50.016;19.890;2023-02-01T07:45:24;4.00;99.90
19692;DHT22;42748;50.016;19.890;2023-02-01T07:47:52;4.00;99.90
19692;DHT22;42748;50.016;19.890;2023-02-01T07:50:20;4.00;99.90
19692;DHT22;42748;50.016;19.890;2023-02-01T07:52:48;4.10;99.90
19692;DHT22;42748;50.016;19.890;2023-02-01T07:55:15;4.00;99.90
19692;DHT22;42748;50.016;19.890;2023-02-01T07:57:42;4.10;99.90
19692;DHT22;42748;50.016;19.890;2023-02-01T08:00:09;4.10;99.90
19692;DHT22;42748;50.016;19.890;2023-02-01T08:02:58;4.20;99.90
19692;DHT22;42748;50.016;19.890;2023-02-01T08:05:25;4.20;99.90
19692;DHT22;42748;50.016;19.890;2023-02-01T08:07:53;4.30;99.90
19692;DHT22;42748;50.016;19.890;2023-02-01T08:10:20;4.30;99.90
19692;DHT22;42748;50.016;19.890;2023-02-01T08:12:47;4.30;99.90
19692;DHT22;42748;50.016;19.890;2023-02-01T08:15:15;4.30;99.90
19692;DHT22;42748;50.016;19.890;2023-02-01T08:17:49;4.30;99.90
19692;DHT22;42748;50.016;19.890;2023-02-01T08:20:18;4.40;99.90
19692;DHT22;42748;50.016;19.890;2023-02-01T08:22:45;4.50;99.90
19692;DHT22;42748;50.016;19.890;2023-02-01T08:25:12;4.50;99.90
19692;DHT22;42748;50.016;19.890;2023-02-01T08:27:39;4.50;99.90
19692;DHT22;42748;50.016;19.890;2023-02-01T08:30:08;4.60;99.90
19692;DHT22;42748;50.016;19.890;2023-02-01T08:32:35;4.60;99.90
19692;DHT22;42748;50.016;19.890;2023-02-01T08:35:03;4.60;99.90
19692;DHT22;42748;50.016;19.890;2023-02-01T08:37:31;4.60;99.90
19692;DHT22;42748;50.016;19.890;2023-02-01T08:39:58;4.60;99.90
19692;DHT22;42748;50.016;19.890;2023-02-01T08:42:25;4.60;99.90
19692;DHT22;42748;50.016;19.890;2023-02-01T08:45:11;4.60;99.90
19692;DHT22;42748;50.016;19.890;2023-02-01T08:47:38;4.60;99.90
19692;DHT22;42748;50.016;19.890;2023-02-01T08:50:06;4.60;99.90
19692;DHT22;42748;50.016;19.890;2023-02-01T08:52:35;4.60;99.90
19692;DHT22;42748;50.016;19.890;2023-02-01T08:55:05;4.60;99.90
19692;DHT22;42748;50.016;19.890;2023-02-01T08:57:33;4.70;99.90
19692;DHT22;42748;50.016;19.890;2023-02-01T09:00:00;4.70;99.90
19692;DHT22;42748;50.016;19.890;2023-02-01T09:02:28;4.70;99.90
19692;DHT22;42748;50.016;19.890;2023-02-01T09:04:56;4.80;99.90
19692;DHT22;42748;50.016;19.890;2023-02-01T09:07:25;4.70;99.90
19692;DHT22;42748;50.016;19.890;2023-02-01T09:09:52;4.70;99.90
19692;DHT22;42748;50.016;19.890;2023-02-01T09:12:21;4.70;99.90
19692;DHT22;42748;50.016;19.890;2023-02-01T09:14:48;4.60;99.90
19692;DHT22;42748;50.016;19.890;2023-02-01T09:17:15;4.60;99.90
19692;DHT22;42748;50.016;19.890;2023-02-01T09:19:42;4.70;99.90
19692;DHT22;42748;50.016;19.890;2023-02-01T09:22:09;4.70;99.90
19692;DHT22;42748;50.016;19.890;2023-02-01T09:24:36;4.80;99.90
19692;DHT22;42748;50.016;19.890;2023-02-01T09:27:04;5.00;99.90
19692;DHT22;42748;50.016;19.890;2023-02-01T09:29:32;5.10;99.90
19692;DHT22;42748;50.016;19.890;2023-02-01T09:31:59;5.20;99.90
19692;DHT22;42748;50.016;19.890;2023-02-01T09:34:30;5.30;99.90
19692;DHT22;42748;50.016;19.890;2023-02-01T09:36:58;5.40;99.90
19692;DHT22;42748;50.016;19.890;2023-02-01T09:39:25;5.50;99.90
19692;DHT22;42748;50.016;19.890;2023-02-01T09:47:19;5.40;99.90
19692;DHT22;42748;50.016;19.890;2023-02-01T09:50:04;5.40;99.90
19692;DHT22;42748;50.016;19.890;2023-02-01T09:52:40;5.30;99.90
19692;DHT22;42748;50.016;19.890;2023-02-01T09:55:16;5.30;99.90
19692;DHT22;42748;50.016;19.890;2023-02-01T09:58:02;5.40;99.90
19692;DHT22;42748;50.016;19.890;2023-02-01T10:00:38;5.40;99.90
19692;DHT22;42748;50.016;19.890;2023-02-01T10:03:11;5.30;99.90
19692;DHT22;42748;50.016;19.890;2023-02-01T10:08:26;5.20;99.90
19692;DHT22;42748;50.016;19.890;2023-02-01T10:11:07;5.10;99.90
19692;DHT22;42748;50.016;19.890;2023-02-01T10:13:58;5.20;99.90
19692;DHT22;42748;50.016;19.890;2023-02-01T10:22:40;5.20;99.90
19692;DHT22;42748;50.016;19.890;2023-02-01T10:28:17;4.90;99.90
19692;DHT22;42748;50.016;19.890;2023-02-01T10:30:47;4.90;99.90
19692;DHT22;42748;50.016;19.890;2023-02-01T10:33:26;4.80;99.90
19692;DHT22;42748;50.016;19.890;2023-02-01T10:36:20;4.80;99.90
19692;DHT22;42748;50.016;19.890;2023-02-01T10:38:48;4.80;99.90
19692;DHT22;42748;50.016;19.890;2023-02-01T10:41:17;4.80;99.90
19692;DHT22;42748;50.016;19.890;2023-02-01T10:43:50;4.80;99.90
19692;DHT22;42748;50.016;19.890;2023-02-01T10:46:20;4.80;99.90
19692;DHT22;42748;50.016;19.890;2023-02-01T10:48:49;4.80;99.90
19692;DHT22;42748;50.016;19.890;2023-02-01T10:51:39;4.80;99.90
19692;DHT22;42748;50.016;19.890;2023-02-01T10:54:20;4.70;99.90
19692;DHT22;42748;50.016;19.890;2023-02-01T10:56:49;4.70;99.90
19692;DHT22;42748;50.016;19.890;2023-02-01T10:59:24;4.80;99.90
19692;DHT22;42748;50.016;19.890;2023-02-01T11:02:02;4.80;99.90
19692;DHT22;42748;50.016;19.890;2023-02-01T11:04:34;4.70;99.90
19692;DHT22;42748;50.016;19.890;2023-02-01T11:07:23;4.80;99.90
19692;DHT22;42748;50.016;19.890;2023-02-01T11:09:53;4.80;99.90
19692;DHT22;42748;50.016;19.890;2023-02-01T11:12:29;4.80;99.90
19692;DHT22;42748;50.016;19.890;2023-02-01T11:15:01;4.80;99.90
19692;DHT22;42748;50.016;19.890;2023-02-01T11:17:35;4.80;99.90
19692;DHT22;42748;50.016;19.890;2023-02-01T11:20:16;4.70;99.90
19692;DHT22;42748;50.016;19.890;2023-02-01T11:22:48;4.70;99.90
19692;DHT22;42748;50.016;19.890;2023-02-01T11:25:20;4.60;99.90
19692;DHT22;42748;50.016;19.890;2023-02-01T11:27:50;4.60;99.90
19692;DHT22;42748;50.016;19.890;2023-02-01T11:30:39;4.60;99.90
19692;DHT22;42748;50.016;19.890;2023-02-01T11:33:13;4.60;99.90
19692;DHT22;42748;50.016;19.890;2023-02-01T11:35:42;4.50;99.90
19692;DHT22;42748;50.016;19.890;2023-02-01T11:38:29;4.40;99.90
19692;DHT22;42748;50.016;19.890;2023-02-01T11:43:58;4.40;99.90
19692;DHT22;42748;50.016;19.890;2023-02-01T11:46:32;4.50;99.90
19692;DHT22;42748;50.016;19.890;2023-02-01T11:49:33;4.50;99.90
19692;DHT22;42748;50.016;19.890;2023-02-01T11:55:18;4.50;99.90
19692;DHT22;42748;50.016;19.890;2023-02-01T12:08:36;4.20;99.90
19692;DHT22;42748;50.016;19.890;2023-02-01T12:11:51;4.50;99.90
19692;DHT22;42748;50.016;19.890;2023-02-01T12:41:52;4.80;99.90
19692;DHT22;42748;50.016;19.890;2023-02-01T12:44:40;4.60;99.90
19692;DHT22;42748;50.016;19.890;2023-02-01T12:52:46;4.50;99.90
19692;DHT22;42748;50.016;19.890;2023-02-01T12:55:34;4.50;99.90
19692;DHT22;42748;50.016;19.890;2023-02-01T12:58:15;4.60;99.90
19692;DHT22;42748;50.016;19.890;2023-02-01T13:00:47;4.70;99.90
19692;DHT22;42748;50.016;19.890;2023-02-01T13:03:42;4.60;99.90
19692;DHT22;42748;50.016;19.890;2023-02-01T13:06:26;4.70;99.90
19692;DHT22;42748;50.016;19.890;2023-02-01T13:09:22;4.70;99.90
19692;DHT22;42748;50.016;19.890;2023-02-01T13:11:54;4.80;99.90
19692;DHT22;42748;50.016;19.890;2023-02-01T13:14:43;4.80;99.90
19692;DHT22;42748;50.016;19.890;2023-02-01T13:17:21;4.80;99.90
19692;DHT22;42748;50.016;19.890;2023-02-01T13:22:42;4.80;99.90
19692;DHT22;42748;50.016;19.890;2023-02-01T13:27:38;4.70;99.90
19692;DHT22;42748;50.016;19.890;2023-02-01T13:36:38;4.80;99.90
19692;DHT22;42748;50.016;19.890;2023-02-01T13:42:00;4.80;99.90
19692;DHT22;42748;50.016;19.890;2023-02-01T13:44:47;4.80;99.90
19692;DHT22;42748;50.016;19.890;2023-02-01T13:47:30;4.70;99.90
19692;DHT22;42748;50.016;19.890;2023-02-01T13:50:02;4.70;99.90
19692;DHT22;42748;50.016;19.890;2023-02-01T13:52:37;4.60;99.90
19692;DHT22;42748;50.016;19.890;2023-02-01T13:58:05;4.50;99.90
19692;DHT22;42748;50.016;19.890;2023-02-01T14:00:35;4.50;99.90
19692;DHT22;42748;50.016;19.890;2023-02-01T14:03:07;4.60;99.90
19692;DHT22;42748;50.016;19.890;2023-02-01T14:10:57;4.60;99.90
19692;DHT22;42748;50.016;19.890;2023-02-01T14:13:38;4.60;99.90
19692;DHT22;42748;50.016;19.890;2023-02-01T14:26:50;4.70;99.90
19692;DHT22;42748;50.016;19.890;2023-02-01T14:29:31;4.70;99.90
19692;DHT22;42748;50.016;19.890;2023-02-01T14:34:37;4.60;99.90
19692;DHT22;42748;50.016;19.890;2023-02-01T14:58:54;4.10;99.90
19692;DHT22;42748;50.016;19.890;2023-02-01T15:01:34;4.00;99.90
19692;DHT22;42748;50.016;19.890;2023-02-01T15:04:11;3.80;99.90
19692;DHT22;42748;50.016;19.890;2023-02-01T15:09:23;3.70;99.90
19692;DHT22;42748;50.016;19.890;2023-02-01T15:14:43;3.50;99.90
19692;DHT22;42748;50.016;19.890;2023-02-01T15:17:24;3.40;99.90
19692;DHT22;42748;50.016;19.890;2023-02-01T15:20:00;3.30;99.90
19692;DHT22;42748;50.016;19.890;2023-02-01T15:22:30;3.30;99.90
19692;DHT22;42748;50.016;19.890;2023-02-01T15:24:59;3.30;99.90
19692;DHT22;42748;50.016;19.890;2023-02-01T15:27:28;3.20;99.90
19692;DHT22;42748;50.016;19.890;2023-02-01T15:30:19;3.20;99.90
19692;DHT22;42748;50.016;19.890;2023-02-01T15:32:47;3.20;99.90
19692;DHT22;42748;50.016;19.890;2023-02-01T15:41:14;3.10;99.90
19692;DHT22;42748;50.016;19.890;2023-02-01T15:44:13;3.10;99.90
19692;DHT22;42748;50.016;19.890;2023-02-01T15:46:46;3.00;99.90
19692;DHT22;42748;50.016;19.890;2023-02-01T15:49:32;2.90;99.90
19692;DHT22;42748;50.016;19.890;2023-02-01T15:52:01;2.90;99.90
19692;DHT22;42748;50.016;19.890;2023-02-01T15:54:40;2.90;99.90
19692;DHT22;42748;50.016;19.890;2023-02-01T15:57:09;2.90;99.90
19692;DHT22;42748;50.016;19.890;2023-02-01T15:59:44;2.90;99.90
19692;DHT22;42748;50.016;19.890;2023-02-01T16:05:03;2.90;99.90
19692;DHT22;42748;50.016;19.890;2023-02-01T16:07:32;2.90;99.90
19692;DHT22;42748;50.016;19.890;2023-02-01T16:10:02;2.90;99.90
19692;DHT22;42748;50.016;19.890;2023-02-01T16:12:46;3.00;99.90
19692;DHT22;42748;50.016;19.890;2023-02-01T16:15:14;3.00;99.90
19692;DHT22;42748;50.016;19.890;2023-02-01T16:17:42;3.00;99.90
19692;DHT22;42748;50.016;19.890;2023-02-01T16:20:11;3.00;99.90
19692;DHT22;42748;50.016;19.890;2023-02-01T16:22:38;3.10;99.90
19692;DHT22;42748;50.016;19.890;2023-02-01T16:25:05;3.10;99.90
19692;DHT22;42748;50.016;19.890;2023-02-01T16:27:32;3.10;99.90
19692;DHT22;42748;50.016;19.890;2023-02-01T16:30:00;3.10;99.90
19692;DHT22;42748;50.016;19.890;2023-02-01T16:32:27;3.10;99.90
19692;DHT22;42748;50.016;19.890;2023-02-01T16:34:56;3.10;99.90
19692;DHT22;42748;50.016;19.890;2023-02-01T16:37:24;3.10;99.90
19692;DHT22;42748;50.016;19.890;2023-02-01T16:39:52;3.20;99.90
19692;DHT22;42748;50.016;19.890;2023-02-01T16:42:19;3.20;99.90
19692;DHT22;42748;50.016;19.890;2023-02-01T16:44:46;3.20;99.90
19692;DHT22;42748;50.016;19.890;2023-02-01T16:47:19;3.20;99.90
19692;DHT22;42748;50.016;19.890;2023-02-01T16:49:49;3.20;99.90
19692;DHT22;42748;50.016;19.890;2023-02-01T16:52:23;3.20;99.90
19692;DHT22;42748;50.016;19.890;2023-02-01T16:54:50;3.10;99.90
19692;DHT22;42748;50.016;19.890;2023-02-01T16:57:19;3.20;99.90
19692;DHT22;42748;50.016;19.890;2023-02-01T16:59:49;3.20;99.90
19692;DHT22;42748;50.016;19.890;2023-02-01T17:02:18;3.20;99.90
19692;DHT22;42748;50.016;19.890;2023-02-01T17:04:46;3.20;99.90
19692;DHT22;42748;50.016;19.890;2023-02-01T17:07:17;3.20;99.90
19692;DHT22;42748;50.016;19.890;2023-02-01T17:09:52;3.20;99.90
19692;DHT22;42748;50.016;19.890;2023-02-01T17:12:29;3.30;99.90
19692;DHT22;42748;50.016;19.890;2023-02-01T17:14:58;3.30;99.90
19692;DHT22;42748;50.016;19.890;2023-02-01T17:17:32;3.30;99.90
19692;DHT22;42748;50.016;19.890;2023-02-01T17:20:05;3.30;99.90
19692;DHT22;42748;50.016;19.890;2023-02-01T17:22:33;3.30;99.90
19692;DHT22;42748;50.016;19.890;2023-02-01T17:25:00;3.30;99.90
19692;DHT22;42748;50.016;19.890;2023-02-01T17:27:27;3.30;99.90
19692;DHT22;42748;50.016;19.890;2023-02-01T17:29:56;3.40;99.90
19692;DHT22;42748;50.016;19.890;2023-02-01T17:32:24;3.40;99.90
19692;DHT22;42748;50.016;19.890;2023-02-01T17:34:51;3.40;99.90
19692;DHT22;42748;50.016;19.890;2023-02-01T17:37:30;3.40;99.90
19692;DHT22;42748;50.016;19.890;2023-02-01T17:39:58;3.40;99.90
19692;DHT22;42748;50.016;19.890;2023-02-01T17:42:27;3.40;99.90
19692;DHT22;42748;50.016;19.890;2023-02-01T17:44:59;3.40;99.90
19692;DHT22;42748;50.016;19.890;2023-02-01T17:47:28;3.50;99.90
19692;DHT22;42748;50.016;19.890;2023-02-01T17:49:55;3.50;99.90
19692;DHT22;42748;50.016;19.890;2023-02-01T17:52:24;3.50;99.90
19692;DHT22;42748;50.016;19.890;2023-02-01T17:54:51;3.60;99.90
19692;DHT22;42748;50.016;19.890;2023-02-01T17:57:20;3.60;99.90
19692;DHT22;42748;50.016;19.890;2023-02-01T17:59:47;3.60;99.90
19692;DHT22;42748;50.016;19.890;2023-02-01T18:02:20;3.60;99.90
19692;DHT22;42748;50.016;19.890;2023-02-01T18:04:49;3.60;99.90
19692;DHT22;42748;50.016;19.890;2023-02-01T18:07:16;3.60;99.90
19692;DHT22;42748;50.016;19.890;2023-02-01T18:09:44;3.60;99.90
19692;DHT22;42748;50.016;19.890;2023-02-01T18:12:19;3.60;99.90
19692;DHT22;42748;50.016;19.890;2023-02-01T18:14:47;3.60;99.90
19692;DHT22;42748;50.016;19.890;2023-02-01T18:17:14;3.60;99.90
19692;DHT22;42748;50.016;19.890;2023-02-01T18:19:41;3.50;99.90
19692;DHT22;42748;50.016;19.890;2023-02-01T18:22:16;3.50;99.90
19692;DHT22;42748;50.016;19.890;2023-02-01T18:24:44;3.50;99.90
19692;DHT22;42748;50.016;19.890;2023-02-01T18:27:11;3.50;99.90
19692;DHT22;42748;50.016;19.890;2023-02-01T18:29:39;3.50;99.90
19692;DHT22;42748;50.016;19.890;2023-02-01T18:32:07;3.40;99.90
19692;DHT22;42748;50.016;19.890;2023-02-01T18:34:35;3.40;99.90
19692;DHT22;42748;50.016;19.890;2023-02-01T18:37:02;3.40;99.90
19692;DHT22;42748;50.016;19.890;2023-02-01T18:39:30;3.40;99.90
19692;DHT22;42748;50.016;19.890;2023-02-01T18:41:57;3.40;99.90
19692;DHT22;42748;50.016;19.890;2023-02-01T18:44:25;3.30;99.90
19692;DHT22;42748;50.016;19.890;2023-02-01T18:46:52;3.20;99.90
19692;DHT22;42748;50.016;19.890;2023-02-01T18:49:19;3.10;99.90
19692;DHT22;42748;50.016;19.890;2023-02-01T18:51:46;3.00;99.90
19692;DHT22;42748;50.016;19.890;2023-02-01T18:54:13;2.90;99.90
19692;DHT22;42748;50.016;19.890;2023-02-01T18:56:40;2.80;99.90
19692;DHT22;42748;50.016;19.890;2023-02-01T18:59:09;2.90;99.90